createdAt,value
2022-12-07T00:01:52.247Z,0.45
2022-12-07T00:04:52.164Z,0.39
2022-12-07T00:07:52.217Z,0.22
2022-12-07T00:10:52.232Z,0.21
2022-12-07T00:13:52.218Z,0.27
2022-12-07T00:16:52.355Z,0.52
2022-12-07T00:19:52.199Z,0.32
2022-12-07T00:22:52.261Z,0.63
2022-12-07T00:25:52.224Z,0.44
2022-12-07T00:28:52.186Z,0.54
2022-12-07T00:31:52.261Z,0.54
2022-12-07T00:34:52.289Z,0.46
2022-12-07T00:37:52.202Z,0.74
2022-12-07T00:40:52.226Z,0.75
2022-12-07T00:43:52.291Z,0.77
2022-12-07T00:46:52.197Z,0.64
2022-12-07T00:49:52.287Z,0.64
2022-12-07T00:52:52.247Z,0.61
2022-12-07T00:55:52.292Z,0.65
2022-12-07T00:58:52.299Z,0.69
2022-12-07T01:01:52.281Z,0.71
2022-12-07T01:04:52.246Z,0.66
2022-12-07T01:07:52.260Z,0.69
2022-12-07T01:10:52.335Z,0.55
2022-12-07T01:13:52.301Z,0.5
2022-12-07T01:16:52.350Z,0.4
2022-12-07T01:19:52.258Z,0.7
2022-12-07T01:22:52.302Z,0.56
2022-12-07T01:25:52.231Z,0.54
2022-12-07T01:28:52.254Z,0.77
2022-12-07T01:31:52.310Z,0.88
2022-12-07T01:34:52.267Z,0.68
2022-12-07T01:37:52.292Z,0.42
2022-12-07T01:40:52.331Z,0.64
2022-12-07T01:43:52.256Z,0.5
2022-12-07T01:46:52.351Z,0.6
2022-12-07T01:49:52.275Z,0.54
2022-12-07T01:52:52.383Z,0.46
2022-12-07T01:55:52.263Z,0.55
2022-12-07T01:58:52.363Z,0.52
2022-12-07T02:01:52.339Z,0.47
2022-12-07T02:04:52.309Z,0.57
2022-12-07T02:07:52.372Z,0.41
2022-12-07T02:10:52.274Z,0.51
2022-12-07T02:13:52.283Z,0.49
2022-12-07T02:16:52.375Z,0.75
2022-12-07T02:19:52.342Z,0.63
2022-12-07T02:22:52.376Z,0.59
2022-12-07T02:25:52.374Z,0.51
2022-12-07T02:28:52.383Z,0.58
2022-12-07T02:31:52.301Z,0.4
2022-12-07T02:34:52.286Z,0.65
2022-12-07T02:37:52.402Z,0.56
2022-12-07T02:40:52.340Z,0.5
2022-12-07T02:43:52.368Z,0.62
2022-12-07T02:46:52.397Z,0.74
2022-12-07T02:49:52.382Z,0.61
2022-12-07T02:52:52.413Z,0.54
2022-12-07T02:55:52.374Z,0.58
2022-12-07T02:58:52.423Z,0.66
2022-12-07T03:01:52.449Z,0.68
2022-12-07T03:04:52.421Z,0.59
2022-12-07T03:07:52.435Z,0.71
2022-12-07T03:10:52.405Z,0.58
2022-12-07T03:13:52.387Z,0.45
2022-12-07T03:16:52.363Z,0.56
2022-12-07T03:19:52.423Z,0.44
2022-12-07T03:22:52.396Z,0.61
2022-12-07T03:25:55.819Z,0.59
2022-12-07T03:28:52.356Z,0.66
2022-12-07T03:31:52.336Z,0.64
2022-12-07T03:34:52.428Z,0.39
2022-12-07T03:37:52.431Z,0.54
2022-12-07T03:40:52.366Z,0.8
2022-12-07T03:43:52.419Z,0.5
2022-12-07T03:46:52.499Z,0.98
2022-12-07T03:49:52.443Z,0.5
2022-12-07T03:52:52.442Z,0.48
2022-12-07T03:55:52.348Z,0.38
2022-12-07T03:58:52.386Z,0.29
2022-12-07T04:01:52.439Z,0.29
2022-12-07T04:04:52.398Z,0.11
2022-12-07T04:07:52.427Z,0.34
2022-12-07T04:10:52.445Z,0.46
2022-12-07T04:13:52.474Z,0.46
2022-12-07T04:16:52.651Z,0.49
2022-12-07T04:19:52.467Z,0.27
2022-12-07T04:22:52.455Z,0.26
2022-12-07T04:25:52.517Z,0.36
2022-12-07T04:28:52.377Z,0.47
2022-12-07T04:31:52.440Z,0.73
2022-12-07T04:34:55.493Z,0.7
2022-12-07T04:37:52.472Z,0.57
2022-12-07T04:40:52.456Z,0.73
2022-12-07T04:43:52.438Z,0.99
2022-12-07T04:46:52.528Z,0.82
2022-12-07T04:49:52.487Z,1.04
2022-12-07T04:52:52.430Z,0.85
2022-12-07T04:55:52.451Z,1
2022-12-07T04:58:52.438Z,0.96
2022-12-07T05:01:52.516Z,0.98
2022-12-07T05:04:52.471Z,1.08
2022-12-07T05:07:52.477Z,1.05
2022-12-07T05:10:52.475Z,0.96
2022-12-07T05:13:52.428Z,1
2022-12-07T05:16:52.489Z,0.85
2022-12-07T05:19:52.484Z,0.81
2022-12-07T05:22:52.511Z,0.81
2022-12-07T05:25:52.428Z,0.57
2022-12-07T05:28:52.456Z,0.61
2022-12-07T05:31:52.578Z,0.21
2022-12-07T05:34:52.547Z,0.21
2022-12-07T05:37:52.544Z,0.31
2022-12-07T05:40:55.225Z,0.14
2022-12-07T05:43:52.532Z,0.66
2022-12-07T05:46:52.438Z,0.25
2022-12-07T05:49:52.477Z,0.23
2022-12-07T05:52:52.515Z,0.3
2022-12-07T05:55:52.499Z,0.15
2022-12-07T05:58:52.514Z,0.14
2022-12-07T06:01:52.626Z,0.19
2022-12-07T06:04:52.533Z,0.28
2022-12-07T06:07:52.528Z,0.27
2022-12-07T06:10:52.527Z,0.51
2022-12-07T06:13:52.559Z,0.71
2022-12-07T06:16:52.534Z,0.66
2022-12-07T06:19:52.483Z,0.54
2022-12-07T06:22:52.509Z,0.57
2022-12-07T06:25:52.499Z,0.84
2022-12-07T06:28:52.516Z,0.83
2022-12-07T06:31:52.520Z,0.82
2022-12-07T06:34:52.599Z,0.62
2022-12-07T06:37:52.491Z,0.88
2022-12-07T06:40:52.507Z,0.88
2022-12-07T06:43:55.920Z,0.71
2022-12-07T06:46:52.722Z,1
2022-12-07T06:49:52.582Z,0.83
2022-12-07T06:52:52.605Z,0.93
2022-12-07T06:55:52.572Z,1.06
2022-12-07T06:58:52.527Z,0.79
2022-12-07T07:01:52.768Z,0.88
2022-12-07T07:04:52.500Z,1.16
2022-12-07T07:08:20.631Z,0.72
2022-12-07T07:10:52.612Z,0.73
2022-12-07T07:13:52.604Z,0.91
2022-12-07T07:16:52.579Z,0.61
2022-12-07T07:19:52.595Z,0.69
2022-12-07T07:22:52.637Z,0.55
2022-12-07T07:25:52.526Z,0.82
2022-12-07T07:28:52.556Z,0.52
2022-12-07T07:31:52.543Z,0.68
2022-12-07T07:34:52.570Z,0.88
2022-12-07T07:37:52.655Z,0.88
2022-12-07T07:40:52.594Z,1.08
2022-12-07T07:43:52.578Z,1.28
2022-12-07T07:46:52.575Z,1.31
2022-12-07T07:49:52.634Z,0.7
2022-12-07T07:52:52.571Z,1.11
2022-12-07T07:55:52.568Z,1.04
2022-12-07T07:58:52.596Z,0.87
2022-12-07T08:01:52.704Z,0.58
2022-12-07T08:04:52.649Z,0.8
2022-12-07T08:07:52.592Z,0.45
2022-12-07T08:10:52.679Z,0.63
2022-12-07T08:13:52.653Z,0.96
2022-12-07T08:16:52.642Z,0.49
2022-12-07T08:19:52.623Z,0.64
2022-12-07T08:22:52.593Z,0.64
2022-12-07T08:25:52.668Z,0.42
2022-12-07T08:28:52.616Z,0.61
2022-12-07T08:31:52.685Z,0.47
2022-12-07T08:34:52.653Z,0.66
2022-12-07T08:37:52.608Z,0.96
2022-12-07T08:40:52.594Z,0.68
2022-12-07T08:43:52.701Z,0.85
2022-12-07T08:46:53.186Z,0.55
2022-12-07T08:49:52.676Z,0.63
2022-12-07T08:52:52.762Z,0.86
2022-12-07T08:55:52.645Z,1.01
2022-12-07T08:58:52.619Z,0.71
2022-12-07T09:01:52.747Z,1.13
2022-12-07T09:04:52.711Z,0.74
2022-12-07T09:07:52.691Z,0.64
2022-12-07T09:10:52.643Z,0.89
2022-12-07T09:13:52.639Z,1.09
2022-12-07T09:16:52.615Z,0.99
2022-12-07T09:19:52.678Z,1.52
2022-12-07T09:22:52.731Z,0.91
2022-12-07T09:25:52.705Z,1.1
2022-12-07T09:28:52.651Z,1.05
2022-12-07T09:31:52.734Z,0.71
2022-12-07T09:34:52.727Z,0.79
2022-12-07T09:37:52.701Z,0.93
2022-12-07T09:40:52.651Z,0.89
2022-12-07T09:43:52.708Z,1.05
2022-12-07T09:46:52.767Z,1.32
2022-12-07T09:49:52.723Z,1.24
2022-12-07T09:52:52.662Z,1.1
2022-12-07T09:55:52.710Z,0.83
2022-12-07T09:58:52.735Z,1.17
2022-12-07T10:01:52.751Z,0.86
2022-12-07T10:04:52.722Z,1.05
2022-12-07T10:07:52.708Z,1.42
2022-12-07T10:10:52.671Z,1
2022-12-07T10:13:52.757Z,0.96
2022-12-07T10:16:52.687Z,1.29
2022-12-07T10:19:52.860Z,0.93
2022-12-07T10:22:52.732Z,0.86
2022-12-07T10:25:52.773Z,1.35
2022-12-07T10:28:52.731Z,1.61
2022-12-07T10:31:52.805Z,0.83
2022-12-07T10:34:52.702Z,0.81
2022-12-07T10:37:52.720Z,1.02
2022-12-07T10:40:52.765Z,1.11
2022-12-07T10:43:52.833Z,1.26
2022-12-07T10:46:52.743Z,1.12
2022-12-07T10:49:52.723Z,1.38
2022-12-07T10:52:53.269Z,1.43
2022-12-07T10:55:52.805Z,1.52
2022-12-07T10:58:52.809Z,1.54
2022-12-07T11:01:52.799Z,1.06
2022-12-07T11:04:52.739Z,1.26
2022-12-07T11:07:56.762Z,0.75
2022-12-07T11:10:52.821Z,1.45
2022-12-07T11:13:52.724Z,1.18
2022-12-07T11:16:52.880Z,0.95
2022-12-07T11:19:52.832Z,0.76
2022-12-07T11:22:52.791Z,1.04
2022-12-07T11:25:52.759Z,0.87
2022-12-07T11:28:52.735Z,1.01
2022-12-07T11:31:52.798Z,1.19
2022-12-07T11:34:52.827Z,0.87
2022-12-07T11:37:52.818Z,1.12
2022-12-07T11:40:52.807Z,0.84
2022-12-07T11:43:52.761Z,0.81
2022-12-07T11:46:52.886Z,0.91
2022-12-07T11:49:52.797Z,0.74
2022-12-07T11:52:52.797Z,1.35
2022-12-07T11:55:52.776Z,0.74
2022-12-07T11:58:52.931Z,0.75
2022-12-07T12:01:52.852Z,0.93
2022-12-07T12:04:52.794Z,0.63
2022-12-07T12:10:52.771Z,0.84
2022-12-07T12:16:52.822Z,1.12
2022-12-07T12:19:52.791Z,1.09
2022-12-07T12:22:52.952Z,1.09
2022-12-07T12:25:52.799Z,0.96
2022-12-07T12:28:52.880Z,0.92
2022-12-07T12:31:52.819Z,0.85
2022-12-07T12:34:52.811Z,0.87
2022-12-07T12:37:52.876Z,0.62
2022-12-07T12:40:52.896Z,0.66
2022-12-07T12:43:52.818Z,0.55
2022-12-07T12:46:52.807Z,0.74
2022-12-07T12:49:52.882Z,0.63
2022-12-07T12:52:52.916Z,0.8
2022-12-07T12:55:52.891Z,0.54
2022-12-07T12:58:52.878Z,0.56
2022-12-07T13:01:52.874Z,0.49
2022-12-07T13:04:52.855Z,0.55
2022-12-07T13:07:52.853Z,0.78
2022-12-07T13:10:52.896Z,0.76
2022-12-07T13:13:52.836Z,0.91
2022-12-07T13:16:52.926Z,1.04
2022-12-07T13:19:52.934Z,0.89
2022-12-07T13:22:52.868Z,0.8
2022-12-07T13:25:52.902Z,0.69
2022-12-07T13:28:52.865Z,0.71
2022-12-07T13:31:52.940Z,0.66
2022-12-07T13:34:52.882Z,0.45
2022-12-07T13:37:52.947Z,0.85
2022-12-07T13:40:52.836Z,0.52
2022-12-07T13:43:52.965Z,0.51
2022-12-07T13:46:52.862Z,0.29
2022-12-07T13:49:53.901Z,0.7
2022-12-07T13:52:52.910Z,0.81
2022-12-07T13:55:54.692Z,0.57
2022-12-07T13:58:52.873Z,0.65
2022-12-07T14:01:52.968Z,0.76
2022-12-07T14:04:52.956Z,0.68
2022-12-07T14:07:52.882Z,0.74
2022-12-07T14:10:52.898Z,0.75
2022-12-07T14:13:52.913Z,0.74
2022-12-07T14:16:52.922Z,0.63
2022-12-07T14:19:52.976Z,0.71
2022-12-07T14:22:52.962Z,0.77
2022-12-07T14:25:53.052Z,0.62
2022-12-07T14:28:52.874Z,0.65
2022-12-07T14:31:52.955Z,0.47
2022-12-07T14:34:52.976Z,0.38
2022-12-07T14:37:53.032Z,0.62
2022-12-07T14:40:52.971Z,0.45
2022-12-07T14:44:07.450Z,0.52
2022-12-07T14:49:52.986Z,0.46
2022-12-07T14:55:52.985Z,0.45
2022-12-07T14:58:52.983Z,0.22
2022-12-07T15:01:53.007Z,0.27
2022-12-07T15:04:52.996Z,0.54
2022-12-07T15:07:52.960Z,0.47
2022-12-07T15:10:53.008Z,0.41
2022-12-07T15:13:52.989Z,0.3
2022-12-07T15:17:08.270Z,0.41
2022-12-07T15:19:52.984Z,0.33
2022-12-07T15:22:52.976Z,0.3
2022-12-07T15:25:52.974Z,0.59
2022-12-07T15:28:53.014Z,0.44
2022-12-07T15:31:56.220Z,0.56
2022-12-07T15:34:53.055Z,0.59
2022-12-07T15:37:53.003Z,0.55
2022-12-07T15:40:52.993Z,0.57
2022-12-07T15:43:53.051Z,0.67
2022-12-07T15:46:53.046Z,0.65
2022-12-07T15:49:53.031Z,0.47
2022-12-07T15:52:52.951Z,0.45
2022-12-07T15:55:52.987Z,0.36
2022-12-07T15:58:52.989Z,0.38
2022-12-07T16:01:53.109Z,0.53
2022-12-07T16:04:52.991Z,0.5
2022-12-07T16:07:52.971Z,0.29
2022-12-07T16:10:53.011Z,0.59
2022-12-07T16:13:53.007Z,0.43
2022-12-07T16:16:53.044Z,0.42
2022-12-07T16:19:52.995Z,0.6
2022-12-07T16:22:53.026Z,0.43
2022-12-07T16:25:53.088Z,0.39
2022-12-07T16:28:53.034Z,0.56
2022-12-07T16:31:53.103Z,0.74
2022-12-07T16:34:53.045Z,0.35
2022-12-07T16:37:53.085Z,0.35
2022-12-07T16:40:52.998Z,0.36
2022-12-07T16:43:53.058Z,0.52
2022-12-07T16:46:53.112Z,0.46
2022-12-07T16:49:53.115Z,0.53
2022-12-07T16:52:53.183Z,0.48
2022-12-07T16:55:53.055Z,0.58
2022-12-07T16:58:53.035Z,0.58
2022-12-07T17:01:53.071Z,0.62
2022-12-07T17:04:53.079Z,0.77
2022-12-07T17:07:53.106Z,0.65
2022-12-07T17:10:53.104Z,0.71
2022-12-07T17:13:53.101Z,0.66
2022-12-07T17:16:53.168Z,0.55
2022-12-07T17:19:53.126Z,0.48
2022-12-07T17:22:53.019Z,0.72
2022-12-07T17:25:53.156Z,0.66
2022-12-07T17:28:53.168Z,0.49
2022-12-07T17:31:53.293Z,0.39
2022-12-07T17:34:53.069Z,0.57
2022-12-07T17:37:53.125Z,0.68
2022-12-07T17:40:53.125Z,0.64
2022-12-07T17:43:53.172Z,0.58
2022-12-07T17:46:53.074Z,0.37
2022-12-07T17:49:53.053Z,0.5
2022-12-07T17:52:53.139Z,0.55
2022-12-07T17:56:26.767Z,0.29
2022-12-07T17:58:53.143Z,0.55
2022-12-07T18:01:53.207Z,0.66
2022-12-07T18:04:53.075Z,0.56
2022-12-07T18:07:53.245Z,0.58
2022-12-07T18:10:53.063Z,0.47
2022-12-07T18:13:53.178Z,0.63
2022-12-07T18:16:53.200Z,0.61
2022-12-07T18:19:53.128Z,0.64
2022-12-07T18:22:53.181Z,0.41
2022-12-07T18:25:53.207Z,0.67
2022-12-07T18:28:53.174Z,0.59
2022-12-07T18:31:53.130Z,0.66
2022-12-07T18:34:53.159Z,0.56
2022-12-07T18:37:53.139Z,0.54
2022-12-07T18:40:53.123Z,0.49
2022-12-07T18:43:53.124Z,0.62
2022-12-07T18:46:53.112Z,0.8
2022-12-07T18:49:53.102Z,0.77
2022-12-07T18:52:53.134Z,0.6
2022-12-07T18:55:53.109Z,0.38
2022-12-07T18:58:53.205Z,0.56
2022-12-07T19:01:53.164Z,0.71
2022-12-07T19:04:53.356Z,0.54
2022-12-07T19:07:53.150Z,0.41
2022-12-07T19:10:53.191Z,0.79
2022-12-07T19:13:53.200Z,0.46
2022-12-07T19:16:53.221Z,0.52
2022-12-07T19:19:53.212Z,0.49
2022-12-07T19:22:53.200Z,0.44
2022-12-07T19:25:53.579Z,0.39
2022-12-07T19:28:53.161Z,0.66
2022-12-07T19:31:53.283Z,0.24
2022-12-07T19:34:53.233Z,0.33
2022-12-07T19:37:53.139Z,0.46
2022-12-07T19:40:53.163Z,0.37
2022-12-07T19:43:53.317Z,0.45
2022-12-07T19:46:53.144Z,0.64
2022-12-07T19:49:53.230Z,0.81
2022-12-07T19:52:53.212Z,0.99
2022-12-07T19:55:53.177Z,0.59
2022-12-07T19:58:53.273Z,0.43
2022-12-07T20:01:53.218Z,0.61
2022-12-07T20:04:53.261Z,0.61
2022-12-07T20:07:53.307Z,0.39
2022-12-07T20:10:53.267Z,0.42
2022-12-07T20:13:53.299Z,0.14
2022-12-07T20:16:53.304Z,0.03
2022-12-07T20:19:53.235Z,0.17
2022-12-07T20:22:53.216Z,0.45
2022-12-07T20:25:53.182Z,0.24
2022-12-07T20:28:53.221Z,0.11
2022-12-07T20:31:53.218Z,0.34
2022-12-07T20:34:53.236Z,0.09
2022-12-07T20:37:53.250Z,0.08
2022-12-07T20:40:53.275Z,0.18
2022-12-07T20:43:53.297Z,0.45
2022-12-07T20:46:53.295Z,0.32
2022-12-07T20:49:53.206Z,0.74
2022-12-07T20:52:57.477Z,0.62
2022-12-07T20:55:53.289Z,0.55
2022-12-07T20:58:53.248Z,0.34
2022-12-07T21:01:53.345Z,0.37
2022-12-07T21:04:53.236Z,0.74
2022-12-07T21:07:53.354Z,0.66
2022-12-07T21:10:53.325Z,0.56
2022-12-07T21:13:53.224Z,0.59
2022-12-07T21:16:53.298Z,0.62
2022-12-07T21:19:53.298Z,0.69
2022-12-07T21:22:53.215Z,0.46
2022-12-07T21:25:53.316Z,0.66
2022-12-07T21:28:53.268Z,0.83
2022-12-07T21:31:53.300Z,0.6
2022-12-07T21:34:53.259Z,0.62
2022-12-07T21:37:53.321Z,0.81
2022-12-07T21:40:53.339Z,0.68
2022-12-07T21:43:53.276Z,0.64
2022-12-07T21:46:53.331Z,0.5
2022-12-07T21:49:53.344Z,0.71
2022-12-07T21:52:53.355Z,0.41
2022-12-07T21:55:53.336Z,0.59
2022-12-07T21:58:53.377Z,0.83
2022-12-07T22:01:53.364Z,0.46
2022-12-07T22:04:53.363Z,0.59
2022-12-07T22:07:53.373Z,0.5
2022-12-07T22:10:53.371Z,0.67
2022-12-07T22:13:53.271Z,0.52
2022-12-07T22:16:53.375Z,0.66
2022-12-07T22:19:53.362Z,0.64
2022-12-07T22:22:53.311Z,0.57
2022-12-07T22:25:53.367Z,0.82
2022-12-07T22:28:53.284Z,0.52
2022-12-07T22:31:54.104Z,0.47
2022-12-07T22:34:53.440Z,0.31
2022-12-07T22:37:53.351Z,0.28
2022-12-07T22:40:53.379Z,0.37
2022-12-07T22:43:53.367Z,0.37
2022-12-07T22:46:53.402Z,0.54
2022-12-07T22:49:53.397Z,0.28
2022-12-07T22:52:53.372Z,0.37
2022-12-07T22:55:53.349Z,0.31
2022-12-07T22:58:53.323Z,0.41
2022-12-07T23:01:53.312Z,0.28
2022-12-07T23:04:53.768Z,0.34
2022-12-07T23:07:53.438Z,0.51
2022-12-07T23:10:53.337Z,0.47
2022-12-07T23:13:53.347Z,0.32
2022-12-07T23:16:53.374Z,0.33
2022-12-07T23:19:55.947Z,0.11
2022-12-07T23:22:53.418Z,0.09
2022-12-07T23:25:53.326Z,0
2022-12-07T23:28:53.434Z,0.02
2022-12-07T23:31:53.388Z,0.14
2022-12-07T23:34:53.406Z,0.13
2022-12-07T23:37:53.379Z,0.06
2022-12-07T23:40:53.350Z,0.06
2022-12-07T23:43:53.416Z,0.21
2022-12-07T23:46:53.438Z,0.08
2022-12-07T23:49:53.376Z,0
2022-12-07T23:52:53.342Z,0
2022-12-07T23:55:53.387Z,0
2022-12-07T23:58:53.375Z,0
